Menahga, Minnesota
Current Conditions -  °F | °C
As of 6:53 AM on Monday 20 Oct 2014 (Local Time) from KPKD Reporting Station
Clear Clear  
Wind Chill: 29°   Ceiling: Unl
Heat Index: 35°   Visibility: 10mi
Dew Point: 33°   Wind: 7mph
Humidity: 92%   Direction: 310°NW
Pressure: 29.99"   Gusts: NA
Location:  46.75°N, 95.1°W
Report Text: KPKD 201153Z AUTO 31006KT 10SM CLR 02/01 A2999 RMK AO2 SLP164 T00170006 10078 20011 51017 TSNO
Loading
Personal Weather Stations






























Interactive Weather Map
Tropical Storm Tracking
New forecast layout! Learn more

10-Day Weather Forecast

Advertisements
Track Severe Weather on mobile